Yankeetown, Indiana
Current Conditions -  °F | °C
As of 6:54 AM on Monday 20 Oct 2014 (Local Time) from KEVV Reporting Station
Broken Clouds Broken Clouds  
Wind Chill: 51°   Ceiling: 10000
Heat Index: 51°   Visibility: 10mi
Dew Point: 47°   Wind: 7mph
Humidity: 86%   Direction: 200°SSW
Pressure: 30.02"   Gusts: NA
Location:  37.9629°N, 87.3632°W
Report Text: KEVV 201154Z 20006KT 10SM BKN100 11/08 A3002 RMK AO2 RAE17 SLP165 P0000 60006 70006 T01060083 10106 20078 56005
Loading
Personal Weather Stations






























Interactive Weather Map
Tropical Storm Tracking
New forecast layout! Learn more

10-Day Weather Forecast

Advertisements
Track Severe Weather on mobile